createdAt,value
2022-09-13T00:01:21.909Z,19.70
2022-09-13T00:03:50.590Z,19.60
2022-09-13T00:06:20.877Z,19.50
2022-09-13T00:08:49.967Z,19.60
2022-09-13T00:11:21.137Z,19.70
2022-09-13T00:13:50.750Z,19.70
2022-09-13T00:16:23.172Z,19.80
2022-09-13T00:18:54.220Z,19.70
2022-09-13T00:21:24.027Z,19.70
2022-09-13T00:23:54.872Z,19.80
2022-09-13T00:26:25.314Z,19.70
2022-09-13T00:28:56.667Z,19.50
2022-09-13T00:31:28.717Z,19.50
2022-09-13T00:33:58.596Z,19.40
2022-09-13T00:36:27.100Z,19.40
2022-09-13T00:38:57.557Z,19.40
2022-09-13T00:41:28.977Z,19.40
2022-09-13T00:43:59.786Z,19.40
2022-09-13T00:46:36.771Z,19.40
2022-09-13T00:49:14.190Z,19.50
2022-09-13T00:51:46.661Z,19.40
2022-09-13T00:54:17.677Z,19.40
2022-09-13T00:56:48.924Z,19.40
2022-09-13T00:59:23.687Z,19.40
2022-09-13T01:01:57.158Z,19.40
2022-09-13T01:04:28.786Z,19.40
2022-09-13T01:07:02.184Z,19.30
2022-09-13T01:09:33.382Z,19.30
2022-09-13T01:12:10.327Z,19.40
2022-09-13T01:14:39.791Z,19.40
2022-09-13T01:17:10.087Z,19.30
2022-09-13T01:19:39.006Z,19.30
2022-09-13T01:22:58.359Z,19.30
2022-09-13T01:26:00.535Z,19.30
2022-09-13T01:28:52.709Z,19.30
2022-09-13T01:31:31.926Z,19.30
2022-09-13T01:34:16.345Z,19.30
2022-09-13T01:37:06.738Z,19.20
2022-09-13T01:39:51.060Z,19.20
2022-09-13T01:42:30.391Z,19.30
2022-09-13T01:45:07.963Z,19.20
2022-09-13T01:47:50.060Z,19.10
2022-09-13T01:50:24.104Z,19.10
2022-09-13T01:52:57.616Z,19.10
2022-09-13T01:55:35.782Z,19.10
2022-09-13T01:58:17.983Z,19.10
2022-09-13T02:00:52.583Z,19.10
2022-09-13T02:03:29.740Z,19.10
2022-09-13T02:06:02.012Z,19.20
2022-09-13T02:08:38.192Z,19.10
2022-09-13T02:11:11.246Z,19.10
2022-09-13T02:13:44.480Z,19.10
2022-09-13T02:16:18.113Z,19.00
2022-09-13T02:18:52.599Z,19.00
2022-09-13T02:21:27.256Z,19.00
2022-09-13T02:24:01.621Z,19.00
2022-09-13T02:26:31.609Z,19.00
2022-09-13T02:29:07.929Z,18.90
2022-09-13T02:31:40.142Z,18.90
2022-09-13T02:34:16.574Z,18.90
2022-09-13T02:36:48.758Z,19.00
2022-09-13T02:39:19.248Z,18.90
2022-09-13T02:42:12.340Z,19.00
2022-09-13T02:44:44.630Z,19.00
2022-09-13T02:47:35.380Z,19.00
2022-09-13T02:50:19.934Z,18.90
2022-09-13T02:52:56.141Z,19.00
2022-09-13T02:55:31.043Z,18.80
2022-09-13T02:58:05.242Z,18.80
2022-09-13T03:00:34.136Z,18.90
2022-09-13T03:03:08.077Z,18.80
2022-09-13T03:05:39.041Z,18.80
2022-09-13T03:08:10.942Z,18.80
2022-09-13T03:10:51.132Z,18.80
2022-09-13T03:13:42.347Z,18.80
2022-09-13T03:16:28.005Z,18.70
2022-09-13T03:19:15.043Z,18.70
2022-09-13T03:21:59.519Z,18.70
2022-09-13T03:24:33.987Z,18.60
2022-09-13T03:27:13.290Z,18.60
2022-09-13T03:29:47.962Z,18.60
2022-09-13T03:32:25.172Z,18.70
2022-09-13T03:34:59.426Z,18.70
2022-09-13T03:37:35.286Z,18.60
2022-09-13T03:40:09.760Z,18.50
2022-09-13T03:42:45.554Z,18.60
2022-09-13T03:45:16.348Z,18.60
2022-09-13T03:47:47.112Z,18.50
2022-09-13T03:50:19.516Z,18.50
2022-09-13T03:52:54.414Z,18.50
2022-09-13T03:55:23.840Z,18.50
2022-09-13T03:57:52.325Z,18.50
2022-09-13T04:00:21.343Z,18.50
2022-09-13T04:02:50.124Z,18.40
2022-09-13T04:05:18.874Z,18.50
2022-09-13T04:07:47.452Z,18.50
2022-09-13T04:10:17.554Z,18.50
2022-09-13T04:12:46.051Z,18.50
2022-09-13T04:15:14.608Z,18.50
2022-09-13T04:17:43.079Z,18.50
2022-09-13T04:20:11.564Z,18.60
2022-09-13T04:22:39.994Z,18.60
2022-09-13T04:25:09.419Z,18.60
2022-09-13T04:27:39.307Z,18.50
2022-09-13T04:30:09.775Z,18.50
2022-09-13T04:32:38.621Z,18.40
2022-09-13T04:35:08.527Z,18.50
2022-09-13T04:37:37.150Z,18.50
2022-09-13T04:40:06.498Z,18.40
2022-09-13T04:42:35.004Z,18.50
2022-09-13T04:45:06.814Z,18.50
2022-09-13T04:47:35.350Z,18.40
2022-09-13T04:50:03.891Z,18.50
2022-09-13T04:52:32.401Z,18.50
2022-09-13T04:55:02.255Z,18.50
2022-09-13T04:57:30.920Z,18.50
2022-09-13T04:59:59.385Z,18.50
2022-09-13T05:02:29.315Z,18.60
2022-09-13T05:04:57.928Z,18.70
2022-09-13T05:07:26.419Z,18.60
2022-09-13T05:09:54.870Z,18.70
2022-09-13T05:12:23.393Z,18.70
2022-09-13T05:14:51.834Z,18.70
2022-09-13T05:17:20.726Z,18.80
2022-09-13T05:19:50.580Z,18.80
2022-09-13T05:22:19.088Z,18.90
2022-09-13T05:24:47.567Z,18.90
2022-09-13T05:27:17.148Z,18.90
2022-09-13T05:29:45.624Z,18.90
2022-09-13T05:32:14.157Z,18.80
2022-09-13T05:34:43.001Z,18.80
2022-09-13T05:37:13.795Z,18.80
2022-09-13T05:40:07.381Z,18.90
2022-09-13T05:42:30.927Z,19.00
2022-09-13T05:44:59.529Z,19.10
2022-09-13T05:47:28.064Z,19.00
2022-09-13T05:50:09.806Z,19.10
2022-09-13T05:52:40.900Z,19.20
2022-09-13T05:55:10.232Z,19.20
2022-09-13T05:57:38.791Z,19.30
2022-09-13T06:00:08.437Z,19.50
2022-09-13T06:02:41.442Z,19.50
2022-09-13T06:05:12.100Z,19.60
2022-09-13T06:07:43.378Z,19.60
2022-09-13T06:10:12.940Z,19.70
2022-09-13T06:12:41.442Z,19.70
2022-09-13T06:15:11.632Z,19.70
2022-09-13T06:17:40.146Z,19.80
2022-09-13T06:20:10.573Z,19.90
2022-09-13T06:22:39.262Z,20.00
2022-09-13T06:25:10.872Z,20.10
2022-09-13T06:27:39.368Z,20.30
2022-09-13T06:30:09.643Z,20.30
2022-09-13T06:32:38.147Z,20.40
2022-09-13T06:35:07.585Z,20.50
2022-09-13T06:37:36.123Z,20.60
2022-09-13T06:40:06.913Z,20.70
2022-09-13T06:42:37.480Z,20.80
2022-09-13T06:45:07.269Z,20.90
2022-09-13T06:47:35.946Z,21.00
2022-09-13T06:50:04.578Z,21.20
2022-09-13T06:52:34.009Z,21.40
2022-09-13T06:55:02.525Z,21.40
2022-09-13T06:57:32.595Z,21.50
2022-09-13T07:00:02.569Z,21.60
2022-09-13T07:02:31.066Z,21.60
2022-09-13T07:04:59.555Z,21.80
2022-09-13T07:07:28.083Z,22.00
2022-09-13T07:09:56.737Z,22.10
2022-09-13T07:12:25.262Z,22.30
2022-09-13T07:14:53.887Z,22.30
2022-09-13T07:17:23.811Z,22.40
2022-09-13T07:19:52.289Z,22.50
2022-09-13T07:22:20.714Z,22.60
2022-09-13T07:24:49.162Z,22.60
2022-09-13T07:27:17.598Z,22.60
2022-09-13T07:29:46.030Z,22.60
2022-09-13T07:32:14.791Z,22.60
2022-09-13T07:34:45.113Z,22.60
2022-09-13T07:37:13.626Z,22.60
2022-09-13T07:39:42.088Z,22.60
2022-09-13T07:42:10.661Z,22.80
2022-09-13T07:44:40.001Z,22.90
2022-09-13T07:47:08.577Z,23.00
2022-09-13T07:49:37.071Z,23.20
2022-09-13T07:52:07.023Z,23.30
2022-09-13T07:54:36.794Z,23.40
2022-09-13T07:57:05.585Z,23.40
2022-09-13T07:59:34.080Z,23.30
2022-09-13T08:02:02.615Z,23.30
2022-09-13T08:04:35.694Z,23.40
2022-09-13T08:07:06.376Z,23.40
2022-09-13T08:09:34.877Z,23.50
2022-09-13T08:12:03.808Z,23.60
2022-09-13T08:14:32.348Z,23.70
2022-09-13T08:17:01.446Z,23.50
2022-09-13T08:19:30.062Z,23.60
2022-09-13T08:21:58.585Z,23.50
2022-09-13T08:24:28.558Z,23.50
2022-09-13T08:26:57.225Z,23.60
2022-09-13T08:29:26.555Z,23.70
2022-09-13T08:31:55.012Z,23.80
2022-09-13T08:34:23.540Z,23.90
2022-09-13T08:36:52.062Z,23.80
2022-09-13T08:39:20.510Z,23.60
2022-09-13T08:42:21.525Z,23.60
2022-09-13T08:44:54.669Z,23.60
2022-09-13T08:47:34.108Z,23.60
2022-09-13T08:50:08.905Z,23.70
2022-09-13T08:52:46.916Z,23.60
2022-09-13T08:55:26.594Z,23.60
2022-09-13T08:58:03.002Z,23.60
2022-09-13T09:00:37.384Z,23.70
2022-09-13T09:03:19.472Z,23.80
2022-09-13T09:05:50.121Z,23.90
2022-09-13T09:08:31.384Z,23.90
2022-09-13T09:11:03.542Z,23.80
2022-09-13T09:13:36.668Z,23.90
2022-09-13T09:16:16.354Z,24.00
2022-09-13T09:18:49.900Z,24.00
2022-09-13T09:21:20.101Z,24.00
2022-09-13T09:23:52.639Z,24.20
2022-09-13T09:26:23.973Z,24.40
2022-09-13T09:28:56.733Z,24.50
2022-09-13T09:31:37.055Z,24.50
2022-09-13T09:34:15.192Z,24.50
2022-09-13T09:36:47.759Z,24.70
2022-09-13T09:39:17.417Z,24.80
2022-09-13T09:41:46.668Z,24.80
2022-09-13T09:44:24.390Z,24.70
2022-09-13T09:46:58.018Z,24.60
2022-09-13T09:49:49.969Z,24.60
2022-09-13T09:52:22.716Z,24.80
2022-09-13T09:54:52.248Z,24.80
2022-09-13T09:57:20.836Z,24.80
2022-09-13T09:59:50.782Z,24.70
2022-09-13T10:02:23.051Z,24.80
2022-09-13T10:04:59.953Z,24.80
2022-09-13T10:07:32.861Z,25.00
2022-09-13T10:10:04.545Z,25.10
2022-09-13T10:12:35.626Z,25.20
2022-09-13T10:15:18.162Z,25.20
2022-09-13T10:18:03.575Z,25.30
2022-09-13T10:20:34.402Z,25.30
2022-09-13T10:23:19.481Z,25.50
2022-09-13T10:26:08.583Z,25.60
2022-09-13T10:28:45.812Z,25.80
2022-09-13T10:31:18.054Z,26.00
2022-09-13T10:33:54.284Z,26.20
2022-09-13T10:36:48.603Z,26.30
2022-09-13T10:39:18.167Z,26.30
2022-09-13T10:41:52.986Z,26.20
2022-09-13T10:44:34.172Z,26.20
2022-09-13T10:47:08.230Z,26.30
2022-09-13T10:49:38.541Z,26.50
2022-09-13T10:52:26.120Z,26.70
2022-09-13T10:54:55.414Z,27.00
2022-09-13T10:57:35.734Z,27.30
2022-09-13T11:00:07.464Z,27.50
2022-09-13T11:02:48.048Z,27.50
2022-09-13T11:05:24.813Z,27.40
2022-09-13T11:08:20.573Z,27.50
2022-09-13T11:11:01.458Z,27.40
2022-09-13T11:13:40.866Z,27.40
2022-09-13T11:16:26.727Z,27.30
2022-09-13T11:19:19.552Z,27.60
2022-09-13T11:22:08.246Z,27.80
2022-09-13T11:24:51.321Z,27.60
2022-09-13T11:27:31.135Z,27.80
2022-09-13T11:30:11.843Z,28.00
2022-09-13T11:32:58.636Z,28.00
2022-09-13T11:35:43.781Z,28.00
2022-09-13T11:38:46.664Z,28.10
2022-09-13T11:41:28.460Z,28.20
2022-09-13T11:44:19.935Z,28.40
2022-09-13T11:46:58.757Z,28.50
2022-09-13T11:49:50.970Z,28.50
2022-09-13T11:52:29.665Z,28.40
2022-09-13T11:55:08.821Z,28.00
2022-09-13T11:57:41.976Z,28.00
2022-09-13T12:00:22.630Z,28.30
2022-09-13T12:03:00.043Z,28.50
2022-09-13T12:05:32.529Z,28.70
2022-09-13T12:08:08.218Z,28.70
2022-09-13T12:10:44.168Z,28.70
2022-09-13T12:13:18.637Z,28.50
2022-09-13T12:15:51.061Z,28.20
2022-09-13T12:18:24.001Z,28.30
2022-09-13T12:20:56.078Z,28.30
2022-09-13T12:23:31.225Z,28.30
2022-09-13T12:26:04.709Z,28.40
2022-09-13T12:28:38.632Z,28.50
2022-09-13T12:31:12.317Z,28.60
2022-09-13T12:33:42.894Z,28.50
2022-09-13T12:36:49.380Z,28.60
2022-09-13T12:39:54.524Z,28.60
2022-09-13T12:42:47.163Z,28.70
2022-09-13T12:45:35.156Z,29.10
2022-09-13T12:48:25.119Z,29.20
2022-09-13T12:51:16.002Z,29.00
2022-09-13T12:54:21.091Z,29.00
2022-09-13T12:57:03.180Z,28.70
2022-09-13T12:59:55.335Z,28.60
2022-09-13T13:02:32.198Z,28.80
2022-09-13T13:05:05.319Z,28.60
2022-09-13T13:07:38.297Z,28.60
2022-09-13T13:10:08.310Z,28.80
2022-09-13T13:12:41.096Z,28.90
2022-09-13T13:15:50.782Z,29.00
2022-09-13T13:18:23.716Z,29.00
2022-09-13T13:21:34.657Z,28.90
2022-09-13T13:24:54.767Z,29.00
2022-09-13T13:27:44.993Z,28.90
2022-09-13T13:30:53.786Z,28.80
2022-09-13T13:33:28.150Z,28.60
2022-09-13T13:35:57.015Z,28.80
2022-09-13T13:38:51.311Z,28.70
2022-09-13T13:41:53.646Z,28.80
2022-09-13T13:45:10.718Z,28.90
2022-09-13T13:48:22.184Z,29.30
2022-09-13T13:51:19.960Z,30.50
2022-09-13T13:53:52.784Z,31.30
2022-09-13T13:56:48.254Z,31.50
2022-09-13T13:59:26.995Z,32.50
2022-09-13T14:01:59.613Z,32.80
2022-09-13T14:05:07.009Z,33.00
2022-09-13T14:10:52.588Z,33.10
2022-09-13T14:13:43.637Z,33.40
2022-09-13T14:16:26.095Z,33.60
2022-09-13T14:19:16.703Z,34.50
2022-09-13T14:21:45.522Z,34.40
2022-09-13T14:24:25.787Z,33.80
2022-09-13T14:27:03.951Z,33.60
2022-09-13T14:29:34.863Z,33.90
2022-09-13T14:32:07.225Z,32.50
2022-09-13T14:34:38.826Z,31.50
2022-09-13T14:37:17.717Z,30.00
2022-09-13T14:39:58.152Z,28.80
2022-09-13T14:42:27.060Z,27.90
2022-09-13T14:44:56.653Z,27.30
2022-09-13T14:47:32.249Z,27.00
2022-09-13T14:50:05.081Z,27.00
2022-09-13T14:52:39.207Z,26.90
2022-09-13T14:55:14.506Z,26.90
2022-09-13T14:57:46.677Z,27.00
2022-09-13T15:00:20.063Z,26.90
2022-09-13T15:02:51.934Z,26.90
2022-09-13T15:05:24.674Z,26.90
2022-09-13T15:07:53.567Z,26.80
2022-09-13T15:10:26.507Z,26.70
2022-09-13T15:12:57.388Z,26.50
2022-09-13T15:15:35.406Z,26.50
2022-09-13T15:18:05.866Z,26.50
2022-09-13T15:20:49.589Z,26.40
2022-09-13T15:23:21.831Z,26.30
2022-09-13T15:25:57.648Z,26.30
2022-09-13T15:28:29.261Z,26.20
2022-09-13T15:30:59.984Z,26.20
2022-09-13T15:33:31.157Z,26.10
2022-09-13T15:36:17.633Z,26.00
2022-09-13T15:39:04.451Z,25.90
2022-09-13T15:41:36.581Z,25.80
2022-09-13T15:44:07.524Z,25.60
2022-09-13T15:46:48.293Z,25.50
2022-09-13T15:49:19.095Z,25.50
2022-09-13T15:51:48.020Z,25.40
2022-09-13T15:54:18.599Z,25.40
2022-09-13T15:56:51.533Z,25.30
2022-09-13T15:59:22.879Z,25.30
2022-09-13T16:01:53.069Z,25.30
2022-09-13T16:04:21.642Z,25.30
2022-09-13T16:06:50.128Z,25.30
2022-09-13T16:09:20.811Z,25.20
2022-09-13T16:11:51.948Z,25.30
2022-09-13T16:14:21.060Z,25.20
2022-09-13T16:16:50.088Z,25.20
2022-09-13T16:19:20.810Z,25.20
2022-09-13T16:21:50.904Z,25.10
2022-09-13T16:24:19.532Z,25.00
2022-09-13T16:26:48.002Z,24.90
2022-09-13T16:29:18.097Z,25.00
2022-09-13T16:31:46.665Z,24.90
2022-09-13T16:34:15.178Z,24.90
2022-09-13T16:36:43.696Z,25.00
2022-09-13T16:39:12.195Z,24.90
2022-09-13T16:41:41.404Z,24.90
2022-09-13T16:44:10.179Z,24.80
2022-09-13T16:46:40.289Z,24.70
2022-09-13T16:49:08.872Z,24.60
2022-09-13T16:51:37.995Z,24.40
2022-09-13T16:54:07.273Z,24.40
2022-09-13T16:56:35.933Z,24.40
2022-09-13T16:59:04.913Z,24.40
2022-09-13T17:01:33.699Z,24.30
2022-09-13T17:04:04.295Z,24.20
2022-09-13T17:06:32.917Z,24.20
2022-09-13T17:09:03.383Z,24.10
2022-09-13T17:11:34.077Z,24.10
2022-09-13T17:14:04.781Z,24.10
2022-09-13T17:16:36.053Z,24.10
2022-09-13T17:19:08.717Z,24.00
2022-09-13T17:21:37.506Z,24.10
2022-09-13T17:24:11.336Z,24.00
2022-09-13T17:26:42.360Z,23.90
2022-09-13T17:29:13.194Z,24.10
2022-09-13T17:31:43.484Z,24.10
2022-09-13T17:34:14.114Z,24.10
2022-09-13T17:36:43.533Z,24.00
2022-09-13T17:39:12.900Z,24.00
2022-09-13T17:41:41.720Z,24.00
2022-09-13T17:44:12.321Z,23.80
2022-09-13T17:46:41.472Z,23.70
2022-09-13T17:49:10.259Z,23.70
2022-09-13T17:51:40.213Z,23.70
2022-09-13T17:54:10.746Z,23.60
2022-09-13T17:56:41.399Z,23.70
2022-09-13T17:59:11.989Z,23.70
2022-09-13T18:01:44.119Z,23.70
2022-09-13T18:04:13.597Z,23.60
2022-09-13T18:06:44.515Z,23.60
2022-09-13T18:09:14.053Z,23.60
2022-09-13T18:11:42.620Z,23.60
2022-09-13T18:14:14.572Z,23.60
2022-09-13T18:16:43.469Z,23.50
2022-09-13T18:19:12.868Z,23.50
2022-09-13T18:21:43.275Z,23.50
2022-09-13T18:24:11.902Z,23.40
2022-09-13T18:26:40.415Z,23.40
2022-09-13T18:29:13.258Z,23.40
2022-09-13T18:31:43.701Z,23.40
2022-09-13T18:34:15.005Z,23.30
2022-09-13T18:36:46.170Z,23.20
2022-09-13T18:39:17.836Z,23.50
2022-09-13T18:41:48.440Z,23.60
2022-09-13T18:44:18.366Z,23.50
2022-09-13T18:46:47.574Z,23.60
2022-09-13T18:49:16.296Z,23.50
2022-09-13T18:51:46.912Z,23.50
2022-09-13T18:54:17.773Z,23.40
2022-09-13T18:56:47.745Z,23.40
2022-09-13T18:59:16.283Z,23.40
2022-09-13T19:01:45.756Z,23.40
2022-09-13T19:04:15.999Z,23.40
2022-09-13T19:06:48.511Z,23.30
2022-09-13T19:09:19.354Z,23.10
2022-09-13T19:11:50.647Z,23.00
2022-09-13T19:14:21.769Z,23.00
2022-09-13T19:16:53.366Z,22.80
2022-09-13T19:19:22.443Z,22.60
2022-09-13T19:21:52.370Z,22.60
2022-09-13T19:24:21.570Z,22.60
2022-09-13T19:26:52.216Z,22.40
2022-09-13T19:29:22.991Z,22.30
2022-09-13T19:31:55.875Z,22.20
2022-09-13T19:34:24.823Z,22.00
2022-09-13T19:37:00.492Z,22.20
2022-09-13T19:39:31.397Z,22.30
2022-09-13T19:42:01.180Z,22.10
2022-09-13T19:44:30.096Z,22.20
2022-09-13T19:47:45.060Z,22.10
2022-09-13T19:49:49.888Z,22.00
2022-09-13T19:52:20.986Z,21.90
2022-09-13T19:54:51.898Z,21.80
2022-09-13T19:57:22.579Z,21.80
2022-09-13T19:59:52.031Z,21.80
2022-09-13T20:02:20.495Z,21.70
2022-09-13T20:04:49.641Z,21.70
2022-09-13T20:07:19.700Z,21.60
2022-09-13T20:09:48.386Z,21.50
2022-09-13T20:12:17.478Z,21.50
2022-09-13T20:14:48.103Z,21.50
2022-09-13T20:17:16.534Z,21.60
2022-09-13T20:19:49.658Z,21.40
2022-09-13T20:22:20.122Z,21.30
2022-09-13T20:24:48.823Z,21.30
2022-09-13T20:27:17.312Z,21.30
2022-09-13T20:29:45.816Z,21.20
2022-09-13T20:32:14.657Z,21.10
2022-09-13T20:34:43.381Z,21.10
2022-09-13T20:37:12.600Z,21.10
2022-09-13T20:39:42.597Z,21.10
2022-09-13T20:42:11.347Z,21.00
2022-09-13T20:44:41.075Z,21.00
2022-09-13T20:47:11.574Z,21.00
2022-09-13T20:49:40.092Z,21.10
2022-09-13T20:52:08.582Z,21.10
2022-09-13T20:54:37.067Z,21.00
2022-09-13T20:57:07.284Z,21.00
2022-09-13T20:59:35.971Z,20.90
2022-09-13T21:02:04.579Z,20.80
2022-09-13T21:04:33.129Z,20.90
2022-09-13T21:07:18.835Z,20.70
2022-09-13T21:09:47.631Z,20.70
2022-09-13T21:12:17.683Z,20.70
2022-09-13T21:14:47.359Z,20.60
2022-09-13T21:17:15.935Z,20.70
2022-09-13T21:19:44.480Z,20.80
2022-09-13T21:22:13.094Z,20.70
2022-09-13T21:24:41.599Z,20.70
2022-09-13T21:27:12.797Z,20.70
2022-09-13T21:29:42.738Z,20.70
2022-09-13T21:32:11.544Z,20.60
2022-09-13T21:34:40.123Z,20.60
2022-09-13T21:37:08.649Z,20.60
2022-09-13T21:39:37.302Z,20.50
2022-09-13T21:42:19.939Z,20.50
2022-09-13T21:44:50.073Z,20.50
2022-09-13T21:47:18.553Z,20.50
2022-09-13T21:49:47.073Z,20.50
2022-09-13T21:52:15.599Z,20.40
2022-09-13T21:54:44.136Z,20.40
2022-09-13T21:57:12.707Z,20.40
2022-09-13T21:59:43.760Z,20.50
2022-09-13T22:02:18.910Z,20.40
2022-09-13T22:04:49.116Z,20.30
2022-09-13T22:07:19.330Z,20.00
2022-09-13T22:09:49.528Z,20.00
2022-09-13T22:12:21.800Z,20.00
2022-09-13T22:14:51.941Z,20.00
2022-09-13T22:17:23.580Z,19.90
2022-09-13T22:19:53.674Z,19.80
2022-09-13T22:22:23.076Z,19.90
2022-09-13T22:24:52.274Z,19.90
2022-09-13T22:27:21.518Z,19.90
2022-09-13T22:29:50.615Z,19.80
2022-09-13T22:32:23.011Z,20.00
2022-09-13T22:34:54.100Z,19.90
2022-09-13T22:37:22.868Z,19.80
2022-09-13T22:39:51.497Z,19.70
2022-09-13T22:42:20.075Z,19.80
2022-09-13T22:44:48.691Z,19.70
2022-09-13T22:47:17.180Z,19.60
2022-09-13T22:49:45.648Z,19.50
2022-09-13T22:52:15.566Z,19.30
2022-09-13T22:54:44.030Z,19.30
2022-09-13T22:57:12.505Z,19.50
2022-09-13T22:59:40.952Z,19.50
2022-09-13T23:02:09.855Z,19.50
2022-09-13T23:04:38.367Z,19.50
2022-09-13T23:07:06.913Z,19.40
2022-09-13T23:09:36.886Z,19.30
2022-09-13T23:12:05.919Z,19.20
2022-09-13T23:14:34.331Z,19.20
2022-09-13T23:17:04.657Z,19.20
2022-09-13T23:19:33.164Z,19.20
2022-09-13T23:22:01.616Z,19.30
2022-09-13T23:24:30.084Z,19.30
2022-09-13T23:27:01.710Z,19.30
2022-09-13T23:29:31.255Z,19.30
2022-09-13T23:31:59.760Z,19.20
2022-09-13T23:34:29.159Z,19.30
2022-09-13T23:36:57.867Z,19.30
2022-09-13T23:39:26.910Z,19.40
2022-09-13T23:41:55.345Z,19.40
2022-09-13T23:44:25.646Z,19.40
2022-09-13T23:46:54.094Z,19.30
2022-09-13T23:49:22.619Z,19.40
2022-09-13T23:51:51.279Z,19.50
2022-09-13T23:54:19.732Z,19.50
2022-09-13T23:56:48.229Z,19.40
2022-09-13T23:59:17.159Z,19.30
